createdAt,value
2018-06-02T00:02:01.184Z,35.53
2018-06-02T00:04:28.044Z,34.80
2018-06-02T00:06:54.747Z,34.70
2018-06-02T00:09:21.441Z,35.17
2018-06-02T00:11:48.171Z,37.30
2018-06-02T00:14:14.860Z,38.63
2018-06-02T00:16:41.544Z,37.90
2018-06-02T00:19:08.315Z,38.40
2018-06-02T00:21:35.006Z,39.63
2018-06-02T00:24:01.706Z,39.60
2018-06-02T00:26:28.400Z,39.27
2018-06-02T00:28:55.109Z,38.00
2018-06-02T00:31:21.781Z,38.67
2018-06-02T00:33:48.515Z,36.30
2018-06-02T00:36:15.234Z,37.10
2018-06-02T00:38:41.888Z,38.50
2018-06-02T00:41:08.604Z,37.10
2018-06-02T00:43:35.297Z,35.90
2018-06-02T00:46:01.996Z,37.60
2018-06-02T00:48:28.688Z,37.97
2018-06-02T00:50:55.393Z,35.83
2018-06-02T00:53:22.090Z,35.13
2018-06-02T00:55:48.793Z,34.67
2018-06-02T00:58:15.478Z,34.53
2018-06-02T01:00:42.295Z,33.67
2018-06-02T01:03:08.976Z,32.17
2018-06-02T01:05:35.679Z,27.70
2018-06-02T01:08:02.364Z,24.33
2018-06-02T01:10:29.175Z,30.07
2018-06-02T01:12:55.883Z,27.47
2018-06-02T01:15:22.631Z,31.23
2018-06-02T01:17:49.394Z,27.80
2018-06-02T01:20:16.051Z,30.13
2018-06-02T01:22:42.751Z,28.30
2018-06-02T01:25:09.452Z,30.50
2018-06-02T01:27:36.164Z,31.33
2018-06-02T01:30:02.871Z,31.10
2018-06-02T01:32:29.571Z,29.10
2018-06-02T01:34:56.264Z,28.00
2018-06-02T01:37:22.967Z,31.03
2018-06-02T01:39:49.678Z,29.40
2018-06-02T01:42:16.532Z,28.40
2018-06-02T01:44:43.212Z,32.63
2018-06-02T01:47:09.891Z,30.37
2018-06-02T01:49:36.594Z,29.40
2018-06-02T01:52:03.280Z,30.10
2018-06-02T01:54:29.995Z,31.33
2018-06-02T01:56:56.687Z,30.53
2018-06-02T01:59:23.389Z,29.53
2018-06-02T02:01:50.071Z,30.30
2018-06-02T02:04:16.796Z,30.00
2018-06-02T02:06:43.471Z,29.27
2018-06-02T02:09:10.152Z,29.73
2018-06-02T02:11:37.539Z,28.83
2018-06-02T02:14:04.250Z,27.50
2018-06-02T02:16:30.968Z,29.17
2018-06-02T02:18:57.669Z,26.70
2018-06-02T02:21:24.363Z,26.43
2018-06-02T02:23:51.068Z,26.73
2018-06-02T02:26:17.777Z,29.50
2018-06-02T02:28:44.454Z,29.23
2018-06-02T02:31:11.134Z,29.00
2018-06-02T02:33:37.852Z,28.03
2018-06-02T02:36:04.548Z,29.60
2018-06-02T02:38:31.238Z,28.63
2018-06-02T02:40:57.939Z,26.70
2018-06-02T02:43:24.627Z,29.43
2018-06-02T02:45:51.335Z,29.40
2018-06-02T02:48:18.069Z,29.47
2018-06-02T02:50:44.772Z,31.47
2018-06-02T02:53:11.486Z,34.37
2018-06-02T02:55:38.251Z,34.33
2018-06-02T02:58:04.927Z,35.23
2018-06-02T03:00:31.728Z,34.93
2018-06-02T03:02:58.400Z,36.33
2018-06-02T03:05:25.105Z,36.40
2018-06-02T03:07:51.804Z,37.73
2018-06-02T03:10:18.577Z,38.17
2018-06-02T03:12:45.284Z,37.50
2018-06-02T03:15:11.968Z,39.27
2018-06-02T03:17:38.701Z,40.53
2018-06-02T03:20:05.373Z,40.83
2018-06-02T03:22:32.079Z,38.80
2018-06-02T03:24:58.767Z,38.63
2018-06-02T03:27:25.595Z,39.57
2018-06-02T03:29:52.341Z,42.20
2018-06-02T03:32:19.027Z,42.10
2018-06-02T03:34:45.882Z,42.67
2018-06-02T03:37:12.559Z,43.23
2018-06-02T03:39:39.251Z,42.57
2018-06-02T03:42:06.071Z,43.23
2018-06-02T03:44:33.112Z,43.97
2018-06-02T03:46:59.803Z,45.17
2018-06-02T03:49:26.548Z,45.50
2018-06-02T03:51:53.251Z,47.00
2018-06-02T03:54:19.943Z,46.60
2018-06-02T03:56:46.661Z,44.50
2018-06-02T03:59:13.367Z,45.43
2018-06-02T04:01:40.090Z,47.43
2018-06-02T04:04:06.860Z,47.63
2018-06-02T04:06:33.536Z,48.87
2018-06-02T04:09:00.244Z,45.70
2018-06-02T04:11:26.941Z,48.00
2018-06-02T04:13:53.742Z,46.60
2018-06-02T04:16:20.423Z,44.60
2018-06-02T04:18:47.135Z,47.00
2018-06-02T04:21:13.816Z,47.40
2018-06-02T04:23:40.531Z,46.60
2018-06-02T04:26:07.328Z,47.60
2018-06-02T04:28:34.964Z,46.63
2018-06-02T04:31:01.648Z,45.90
2018-06-02T04:33:28.355Z,48.03
2018-06-02T04:35:55.066Z,49.10
2018-06-02T04:38:21.747Z,48.00
2018-06-02T04:40:48.444Z,46.97
2018-06-02T04:43:15.183Z,46.60
2018-06-02T04:45:41.879Z,46.30
2018-06-02T04:48:08.572Z,47.87
2018-06-02T04:50:35.252Z,44.57
2018-06-02T04:53:02.016Z,46.53
2018-06-02T04:55:28.752Z,49.07
2018-06-02T04:57:55.496Z,52.53
2018-06-02T05:00:22.187Z,52.20
2018-06-02T05:02:48.892Z,50.33
2018-06-02T05:05:15.656Z,53.90
2018-06-02T05:07:42.352Z,52.97
2018-06-02T05:10:09.051Z,50.93
2018-06-02T05:12:35.758Z,55.37
2018-06-02T05:15:02.498Z,57.50
2018-06-02T05:17:29.183Z,57.10
2018-06-02T05:19:55.900Z,56.17
2018-06-02T05:22:22.585Z,56.60
2018-06-02T05:24:49.488Z,59.13
2018-06-02T05:27:16.163Z,56.20
2018-06-02T05:29:42.839Z,53.47
2018-06-02T05:32:09.553Z,52.30
2018-06-02T05:34:36.234Z,54.90
2018-06-02T05:37:02.939Z,53.03
2018-06-02T05:39:29.695Z,50.23
2018-06-02T05:41:56.388Z,50.77
2018-06-02T05:44:23.091Z,53.30
2018-06-02T05:46:49.792Z,56.77
2018-06-02T05:49:16.472Z,54.47
2018-06-02T05:51:43.166Z,55.03
2018-06-02T05:54:09.920Z,52.70
2018-06-02T05:56:36.602Z,54.97
2018-06-02T05:59:03.309Z,55.13
2018-06-02T06:01:30.020Z,56.03
2018-06-02T06:03:56.740Z,54.93
2018-06-02T06:06:23.516Z,55.47
2018-06-02T06:08:50.219Z,55.73
2018-06-02T06:11:17.126Z,58.50
2018-06-02T06:13:43.836Z,58.30
2018-06-02T06:16:10.531Z,55.77
2018-06-02T06:18:37.235Z,59.37
2018-06-02T06:21:04.047Z,59.20
2018-06-02T06:23:30.853Z,56.53
2018-06-02T06:25:57.585Z,59.07
2018-06-02T06:28:24.285Z,59.37
2018-06-02T06:30:50.979Z,59.30
2018-06-02T06:33:17.688Z,54.20
2018-06-02T06:35:44.399Z,58.00
2018-06-02T06:38:11.117Z,55.00
2018-06-02T06:40:37.951Z,61.30
2018-06-02T06:43:04.671Z,59.40
2018-06-02T06:45:31.384Z,57.50
2018-06-02T06:47:58.095Z,56.20
2018-06-02T06:50:25.046Z,53.93
2018-06-02T06:52:51.797Z,49.33
2018-06-02T06:55:18.488Z,51.60
2018-06-02T06:57:45.194Z,50.80
2018-06-02T07:00:11.896Z,44.90
2018-06-02T07:02:38.612Z,44.33
2018-06-02T07:05:05.293Z,43.40
2018-06-02T07:07:32.012Z,39.00
2018-06-02T07:09:58.723Z,34.93
2018-06-02T07:12:25.415Z,36.10
2018-06-02T07:14:52.256Z,35.20
2018-06-02T07:17:19.023Z,36.50
2018-06-02T07:19:45.727Z,33.63
2018-06-02T07:22:12.445Z,28.47
2018-06-02T07:24:39.160Z,22.73
2018-06-02T07:27:05.842Z,24.13
2018-06-02T07:29:32.537Z,22.47
2018-06-02T07:31:59.227Z,20.97
2018-06-02T07:34:25.913Z,22.93
2018-06-02T07:36:52.735Z,21.57
2018-06-02T07:39:19.440Z,20.57
2018-06-02T07:41:46.169Z,21.60
2018-06-02T07:44:12.882Z,21.73
2018-06-02T07:46:39.658Z,21.47
2018-06-02T07:49:06.380Z,21.60
2018-06-02T07:51:33.078Z,21.03
2018-06-02T07:53:59.811Z,19.70
2018-06-02T07:56:26.530Z,16.80
2018-06-02T07:58:53.240Z,16.00
2018-06-02T08:01:20.084Z,14.93
2018-06-02T08:03:46.793Z,13.83
2018-06-02T08:06:13.475Z,14.30
2018-06-02T08:08:40.223Z,15.30
2018-06-02T08:11:07.114Z,15.30
2018-06-02T08:13:33.816Z,16.70
2018-06-02T08:16:00.576Z,15.90
2018-06-02T08:18:27.262Z,15.00
2018-06-02T08:20:53.959Z,15.57
2018-06-02T08:23:20.671Z,14.67
2018-06-02T08:25:47.376Z,15.70
2018-06-02T08:28:14.093Z,15.47
2018-06-02T08:30:40.804Z,15.43
2018-06-02T08:33:07.538Z,15.43
2018-06-02T08:35:34.224Z,15.13
2018-06-02T08:38:00.969Z,16.13
2018-06-02T08:40:27.660Z,13.10
2018-06-02T08:42:54.372Z,15.50
2018-06-02T08:45:21.064Z,13.73
2018-06-02T08:47:47.779Z,13.87
2018-06-02T08:50:14.467Z,14.73
2018-06-02T08:52:41.236Z,13.17
2018-06-02T08:55:07.919Z,11.40
2018-06-02T08:57:34.631Z,12.40
2018-06-02T09:00:01.348Z,12.80
2018-06-02T09:02:28.068Z,11.40
2018-06-02T09:04:54.765Z,13.13
2018-06-02T09:07:21.474Z,12.53
2018-06-02T09:09:48.191Z,12.20
2018-06-02T09:12:14.889Z,11.30
2018-06-02T09:14:41.600Z,11.80
2018-06-02T09:17:08.291Z,11.37
2018-06-02T09:19:35.002Z,10.90
2018-06-02T09:22:01.679Z,11.93
2018-06-02T09:24:28.438Z,11.17
2018-06-02T09:26:55.148Z,11.30
2018-06-02T09:29:21.835Z,11.67
2018-06-02T09:31:48.572Z,12.53
2018-06-02T09:34:15.285Z,10.87
2018-06-02T09:36:41.997Z,11.07
2018-06-02T09:39:08.687Z,10.60
2018-06-02T09:41:35.431Z,11.17
2018-06-02T09:44:02.116Z,11.20
2018-06-02T09:46:28.857Z,10.63
2018-06-02T09:48:55.592Z,11.70
2018-06-02T09:51:22.299Z,11.70
2018-06-02T09:53:49.018Z,11.70
2018-06-02T09:56:15.840Z,12.83
2018-06-02T09:58:42.551Z,13.43
2018-06-02T10:01:09.301Z,11.37
2018-06-02T10:03:35.980Z,12.60
2018-06-02T10:06:02.777Z,12.50
2018-06-02T10:08:29.472Z,9.90
2018-06-02T10:10:56.189Z,12.60
2018-06-02T10:13:22.875Z,12.00
2018-06-02T10:15:49.583Z,12.50
2018-06-02T10:18:16.282Z,12.67
2018-06-02T10:20:43.047Z,11.83
2018-06-02T10:23:09.927Z,14.00
2018-06-02T10:25:36.792Z,12.83
2018-06-02T10:28:03.508Z,12.43
2018-06-02T10:30:30.420Z,10.83
2018-06-02T10:32:57.109Z,12.07
2018-06-02T10:35:23.859Z,11.10
2018-06-02T10:37:50.522Z,10.97
2018-06-02T10:40:17.204Z,9.47
2018-06-02T10:42:43.917Z,8.73
2018-06-02T10:45:10.703Z,9.77
2018-06-02T10:47:37.380Z,8.90
2018-06-02T10:50:04.075Z,9.23
2018-06-02T10:52:30.787Z,8.30
2018-06-02T10:54:57.468Z,11.00
2018-06-02T10:57:24.272Z,9.70
2018-06-02T10:59:50.931Z,9.10
2018-06-02T11:02:17.640Z,9.27
2018-06-02T11:04:44.367Z,9.30
2018-06-02T11:07:11.071Z,10.60
2018-06-02T11:09:37.789Z,10.97
2018-06-02T11:12:04.475Z,9.60
2018-06-02T11:14:31.176Z,10.17
2018-06-02T11:16:57.888Z,9.07
2018-06-02T11:19:24.624Z,9.00
2018-06-02T11:21:51.296Z,8.93
2018-06-02T11:24:18.113Z,10.73
2018-06-02T11:26:44.771Z,9.63
2018-06-02T11:29:11.493Z,10.20
2018-06-02T11:31:38.252Z,10.27
2018-06-02T11:34:04.961Z,9.50
2018-06-02T11:36:31.643Z,10.67
2018-06-02T11:38:58.350Z,9.17
2018-06-02T11:41:25.048Z,9.33
2018-06-02T11:43:51.748Z,9.87
2018-06-02T11:46:18.451Z,7.97
2018-06-02T11:48:45.154Z,9.53
2018-06-02T11:51:11.851Z,7.20
2018-06-02T11:53:38.536Z,7.67
2018-06-02T11:56:05.460Z,8.50
2018-06-02T11:58:32.156Z,8.67
2018-06-02T12:00:58.873Z,7.30
2018-06-02T12:03:25.582Z,7.67
2018-06-02T12:05:52.260Z,7.33
2018-06-02T12:08:19.081Z,8.47
2018-06-02T12:10:45.760Z,7.07
2018-06-02T12:13:12.476Z,7.90
2018-06-02T12:15:39.167Z,8.17
2018-06-02T12:18:05.859Z,7.47
2018-06-02T12:20:32.577Z,7.53
2018-06-02T12:22:59.275Z,6.87
2018-06-02T12:25:25.967Z,7.37
2018-06-02T12:27:52.673Z,7.07
2018-06-02T12:30:19.359Z,7.30
2018-06-02T12:32:46.057Z,8.23
2018-06-02T12:35:12.756Z,7.00
2018-06-02T12:37:39.439Z,6.30
2018-06-02T12:40:06.187Z,6.23
2018-06-02T12:42:32.881Z,7.13
2018-06-02T12:44:59.601Z,5.73
2018-06-02T12:47:26.306Z,6.07
2018-06-02T12:49:52.999Z,6.57
2018-06-02T12:52:19.710Z,6.50
2018-06-02T12:54:46.440Z,5.90
2018-06-02T12:57:13.140Z,6.07
2018-06-02T12:59:39.834Z,5.73
2018-06-02T13:02:06.555Z,5.17
2018-06-02T13:04:33.237Z,5.20
2018-06-02T13:06:59.932Z,5.00
2018-06-02T13:09:26.722Z,5.53
2018-06-02T13:11:53.453Z,6.90
2018-06-02T13:14:20.205Z,6.40
2018-06-02T13:16:46.892Z,5.90
2018-06-02T13:19:13.590Z,5.80
2018-06-02T13:21:40.298Z,4.93
2018-06-02T13:24:07.016Z,5.00
2018-06-02T13:26:33.705Z,5.97
2018-06-02T13:29:00.423Z,6.60
2018-06-02T13:31:27.140Z,6.27
2018-06-02T13:33:53.843Z,5.60
2018-06-02T13:36:20.520Z,6.23
2018-06-02T13:38:47.224Z,5.43
2018-06-02T13:41:13.941Z,5.47
2018-06-02T13:43:40.619Z,5.83
2018-06-02T13:46:07.351Z,5.17
2018-06-02T13:48:34.040Z,5.50
2018-06-02T13:51:00.893Z,5.97
2018-06-02T13:53:27.579Z,5.40
2018-06-02T13:55:54.285Z,5.60
2018-06-02T13:58:20.977Z,5.90
2018-06-02T14:00:47.687Z,5.40
2018-06-02T14:03:14.377Z,5.23
2018-06-02T14:05:41.282Z,4.47
2018-06-02T14:08:07.984Z,6.40
2018-06-02T14:10:34.687Z,5.87
2018-06-02T14:13:01.383Z,6.63
2018-06-02T14:15:28.115Z,5.93
2018-06-02T14:17:54.833Z,6.10
2018-06-02T14:20:21.523Z,6.70
2018-06-02T14:22:48.216Z,6.30
2018-06-02T14:25:14.924Z,5.20
2018-06-02T14:27:41.607Z,6.13
2018-06-02T14:30:08.330Z,6.20
2018-06-02T14:32:35.051Z,5.67
2018-06-02T14:35:01.848Z,6.70
2018-06-02T14:37:28.572Z,5.87
2018-06-02T14:39:55.261Z,5.20
2018-06-02T14:42:22.024Z,6.20
2018-06-02T14:44:48.763Z,5.87
2018-06-02T14:47:15.467Z,5.03
2018-06-02T14:49:42.140Z,5.50
2018-06-02T14:52:08.862Z,6.07
2018-06-02T14:54:35.556Z,5.40
2018-06-02T14:57:02.245Z,5.70
2018-06-02T14:59:28.909Z,6.20
2018-06-02T15:01:55.604Z,5.40
2018-06-02T15:04:22.308Z,5.93
2018-06-02T15:06:49.034Z,5.90
2018-06-02T15:09:15.757Z,5.83
2018-06-02T15:11:42.486Z,5.73
2018-06-02T15:14:09.212Z,5.80
2018-06-02T15:16:35.917Z,5.50
2018-06-02T15:19:02.588Z,5.30
2018-06-02T15:21:29.321Z,4.90
2018-06-02T15:23:56.049Z,4.60
2018-06-02T15:26:22.765Z,5.20
2018-06-02T15:28:49.473Z,4.23
2018-06-02T15:31:16.186Z,5.10
2018-06-02T15:33:42.898Z,4.90
2018-06-02T15:36:09.574Z,5.07
2018-06-02T15:38:36.279Z,4.77
2018-06-02T15:41:02.984Z,3.80
2018-06-02T15:43:29.680Z,4.80
2018-06-02T15:45:56.394Z,4.70
2018-06-02T15:48:23.650Z,4.80
2018-06-02T15:50:50.339Z,4.87
2018-06-02T15:53:17.028Z,4.67
2018-06-02T15:55:43.744Z,4.20
2018-06-02T15:58:10.549Z,3.80
2018-06-02T16:00:37.250Z,3.80
2018-06-02T16:03:03.946Z,4.07
2018-06-02T16:05:30.664Z,4.27
2018-06-02T16:07:57.367Z,3.97
2018-06-02T16:10:24.063Z,4.03
2018-06-02T16:12:50.840Z,4.10
2018-06-02T16:15:17.518Z,4.27
2018-06-02T16:17:44.263Z,5.37
2018-06-02T16:20:10.935Z,4.70
2018-06-02T16:22:37.672Z,5.27
2018-06-02T16:25:04.386Z,4.90
2018-06-02T16:27:31.107Z,4.83
2018-06-02T16:29:57.808Z,5.17
2018-06-02T16:32:24.471Z,4.70
2018-06-02T16:34:51.190Z,4.93
2018-06-02T16:37:17.895Z,5.77
2018-06-02T16:39:44.612Z,5.93
2018-06-02T16:42:11.299Z,5.83
2018-06-02T16:44:38.112Z,5.50
2018-06-02T16:47:04.794Z,5.07
2018-06-02T16:49:31.504Z,4.40
2018-06-02T16:51:58.213Z,4.77
2018-06-02T16:54:24.910Z,4.60
2018-06-02T16:56:51.633Z,4.60
2018-06-02T16:59:18.324Z,4.33
2018-06-02T17:01:45.013Z,4.40
2018-06-02T17:04:11.714Z,4.67
2018-06-02T17:06:38.442Z,3.90
2018-06-02T17:09:05.157Z,5.40
2018-06-02T17:11:31.843Z,4.57
2018-06-02T17:13:58.543Z,4.70
2018-06-02T17:16:25.249Z,5.03
2018-06-02T17:18:51.925Z,4.80
2018-06-02T17:21:18.655Z,5.07
2018-06-02T17:23:45.357Z,4.77
2018-06-02T17:26:12.053Z,5.70
2018-06-02T17:28:38.739Z,5.10
2018-06-02T17:31:05.449Z,5.27
2018-06-02T17:33:32.147Z,5.70
2018-06-02T17:35:58.888Z,4.70
2018-06-02T17:38:25.594Z,5.07
2018-06-02T17:40:52.445Z,5.43
2018-06-02T17:43:19.125Z,5.17
2018-06-02T17:45:45.821Z,4.87
2018-06-02T17:48:12.528Z,5.27
2018-06-02T17:50:39.204Z,5.50
2018-06-02T17:53:05.916Z,5.33
2018-06-02T17:55:32.808Z,4.23
2018-06-02T17:57:59.523Z,5.10
2018-06-02T18:00:26.200Z,5.00
2018-06-02T18:02:52.911Z,5.30
2018-06-02T18:05:19.612Z,4.80
2018-06-02T18:07:46.329Z,4.40
2018-06-02T18:10:13.084Z,5.20
2018-06-02T18:12:39.786Z,5.13
2018-06-02T18:15:06.505Z,5.30
2018-06-02T18:17:33.181Z,5.87
2018-06-02T18:19:59.897Z,5.27
2018-06-02T18:22:26.620Z,4.80
2018-06-02T18:24:53.340Z,5.30
2018-06-02T18:27:20.043Z,5.33
2018-06-02T18:29:46.711Z,5.73
2018-06-02T18:32:13.415Z,4.93
2018-06-02T18:34:40.123Z,5.50
2018-06-02T18:37:06.933Z,5.73
2018-06-02T18:39:33.633Z,5.87
2018-06-02T18:42:00.356Z,6.40
2018-06-02T18:44:27.043Z,6.03
2018-06-02T18:46:53.775Z,5.80
2018-06-02T18:49:20.479Z,6.20
2018-06-02T18:51:47.202Z,5.57
2018-06-02T18:54:13.892Z,5.97
2018-06-02T18:56:40.624Z,5.83
2018-06-02T18:59:07.327Z,6.00
2018-06-02T19:01:34.176Z,5.53
2018-06-02T19:04:00.887Z,5.87
2018-06-02T19:06:27.573Z,5.50
2018-06-02T19:08:54.435Z,6.70
2018-06-02T19:11:21.140Z,6.80
2018-06-02T19:13:47.859Z,5.40
2018-06-02T19:16:14.732Z,6.43
2018-06-02T19:18:41.436Z,6.40
2018-06-02T19:21:08.349Z,6.30
2018-06-02T19:23:35.072Z,6.03
2018-06-02T19:26:01.760Z,6.47
2018-06-02T19:28:28.469Z,6.03
2018-06-02T19:30:55.157Z,6.20
2018-06-02T19:33:21.855Z,6.80
2018-06-02T19:35:48.558Z,5.87
2018-06-02T19:38:15.254Z,7.40
2018-06-02T19:40:41.963Z,6.83
2018-06-02T19:43:08.713Z,6.70
2018-06-02T19:45:35.415Z,6.87
2018-06-02T19:48:02.102Z,6.60
2018-06-02T19:50:28.777Z,6.67
2018-06-02T19:52:55.569Z,7.50
2018-06-02T19:55:22.293Z,8.40
2018-06-02T19:57:49.085Z,7.70
2018-06-02T20:00:15.789Z,8.00
2018-06-02T20:02:42.512Z,6.80
2018-06-02T20:05:09.225Z,8.63
2018-06-02T20:07:35.891Z,7.40
2018-06-02T20:10:02.617Z,7.40
2018-06-02T20:12:29.322Z,7.27
2018-06-02T20:14:56.038Z,7.60
2018-06-02T20:17:22.859Z,7.07
2018-06-02T20:19:49.578Z,6.43
2018-06-02T20:22:16.267Z,5.90
2018-06-02T20:24:42.968Z,7.50
2018-06-02T20:27:09.655Z,6.70
2018-06-02T20:29:36.367Z,7.67
2018-06-02T20:32:03.057Z,7.10
2018-06-02T20:34:29.779Z,6.90
2018-06-02T20:36:56.506Z,7.00
2018-06-02T20:39:23.182Z,7.50
2018-06-02T20:41:49.918Z,7.77
2018-06-02T20:44:16.652Z,7.83
2018-06-02T20:46:43.444Z,7.00
2018-06-02T20:49:10.152Z,7.20
2018-06-02T20:51:36.855Z,9.00
2018-06-02T20:54:03.751Z,8.17
2018-06-02T20:56:30.468Z,9.57
2018-06-02T20:58:57.213Z,10.97
2018-06-02T21:01:23.924Z,10.33
2018-06-02T21:03:50.641Z,9.57
2018-06-02T21:06:17.332Z,9.73
2018-06-02T21:08:44.152Z,10.40
2018-06-02T21:11:10.977Z,9.43
2018-06-02T21:13:37.753Z,9.60
2018-06-02T21:16:04.424Z,9.73
2018-06-02T21:18:31.149Z,10.63
2018-06-02T21:20:57.902Z,9.57
2018-06-02T21:23:24.685Z,8.80
2018-06-02T21:25:51.480Z,9.20
2018-06-02T21:28:18.307Z,8.63
2018-06-02T21:30:45.011Z,8.83
2018-06-02T21:33:11.716Z,8.10
2018-06-02T21:35:38.459Z,9.03
2018-06-02T21:38:05.150Z,8.83
2018-06-02T21:40:31.888Z,8.60
2018-06-02T21:42:58.606Z,8.60
2018-06-02T21:45:25.381Z,8.80
2018-06-02T21:47:52.091Z,9.13
2018-06-02T21:50:18.781Z,11.17
2018-06-02T21:52:45.640Z,14.37
2018-06-02T21:55:12.357Z,13.73
2018-06-02T21:57:39.083Z,13.53
2018-06-02T22:00:05.800Z,15.90
2018-06-02T22:02:32.527Z,15.30
2018-06-02T22:04:59.241Z,13.07
2018-06-02T22:07:25.951Z,14.47
2018-06-02T22:09:52.680Z,16.50
2018-06-02T22:12:19.417Z,15.30
2018-06-02T22:14:46.132Z,16.33
2018-06-02T22:17:12.870Z,17.10
2018-06-02T22:19:39.579Z,18.80
2018-06-02T22:22:06.305Z,19.80
2018-06-02T22:24:32.987Z,17.63
2018-06-02T22:26:59.739Z,18.03
2018-06-02T22:29:26.426Z,18.30
2018-06-02T22:31:53.129Z,19.00
2018-06-02T22:34:19.966Z,18.13
2018-06-02T22:36:46.647Z,19.00
2018-06-02T22:39:13.320Z,18.47
2018-06-02T22:41:40.026Z,21.10
2018-06-02T22:44:06.723Z,20.90
2018-06-02T22:46:33.420Z,19.47
2018-06-02T22:49:00.145Z,21.40
2018-06-02T22:51:32.760Z,22.33
2018-06-02T22:53:59.458Z,20.93
2018-06-02T22:56:26.141Z,25.17
2018-06-02T22:58:52.933Z,22.27
2018-06-02T23:01:19.659Z,22.63
2018-06-02T23:03:46.364Z,23.80
2018-06-02T23:06:13.051Z,24.00
2018-06-02T23:08:39.740Z,24.63
2018-06-02T23:11:06.454Z,24.07
2018-06-02T23:13:33.164Z,27.33
2018-06-02T23:15:59.872Z,23.87
2018-06-02T23:18:26.576Z,27.50
2018-06-02T23:20:53.482Z,24.70
2018-06-02T23:23:20.175Z,29.73
2018-06-02T23:25:46.896Z,31.63
2018-06-02T23:28:13.594Z,30.13
2018-06-02T23:30:40.335Z,30.97
2018-06-02T23:33:07.016Z,31.40
2018-06-02T23:35:33.708Z,32.33
2018-06-02T23:38:00.427Z,32.43
2018-06-02T23:40:27.154Z,30.47
2018-06-02T23:42:53.917Z,30.07
2018-06-02T23:45:20.692Z,30.60
2018-06-02T23:47:47.407Z,31.63
2018-06-02T23:50:14.129Z,29.50
2018-06-02T23:52:40.924Z,27.00
2018-06-02T23:55:07.607Z,30.03
2018-06-02T23:57:34.324Z,30.83
